Aviation Digital Data Service (ADDS)

Output produced by METARs form (1035 UTC 17 June 2019)
found at http://www.aviationweather.gov/metar/data/
 
METAR text: ZSNB 171000Z 12003MPS 7000 -SHRA SCT040 24/22 Q1011 NOSIG
Conditions at: ZSNB (NINGBO/LISHE , CN) observed 1000 UTC 17 June 2019
Temperature: 24.0°C (75°F)
Dewpoint: 22.0°C (72°F) [RH = 89%]
Pressure (altimeter): 29.85 inches Hg (1011.0 mb)
Winds: from the ESE (120 degrees) at 7 MPH (6 knots; 3.1 m/s)
Visibility: 4 miles ( 7 km)
Ceiling: at least 12,000 feet AGL
Clouds: scattered clouds at 4000 feet AGL
Weather: -SHRA  (light rain showers)

METAR text: ZSNB 170900Z 17003MPS 9000 -SHRA SCT040 25/22 Q1011 NOSIG
Conditions at: ZSNB (NINGBO/LISHE , CN) observed 0900 UTC 17 June 2019
Temperature: 25.0°C (77°F)
Dewpoint: 22.0°C (72°F) [RH = 83%]
Pressure (altimeter): 29.85 inches Hg (1011.0 mb)
Winds: from the S (170 degrees) at 7 MPH (6 knots; 3.1 m/s)
Visibility: 6 miles ( 9 km)
Ceiling: at least 12,000 feet AGL
Clouds: scattered clouds at 4000 feet AGL
Weather: -SHRA  (light rain showers)

METAR text: ZSNB 170800Z 17003MPS 8000 -SHRA SCT040 25/22 Q1011 NOSIG
Conditions at: ZSNB (NINGBO/LISHE , CN) observed 0800 UTC 17 June 2019
Temperature: 25.0°C (77°F)
Dewpoint: 22.0°C (72°F) [RH = 83%]
Pressure (altimeter): 29.85 inches Hg (1011.0 mb)
Winds: from the S (170 degrees) at 7 MPH (6 knots; 3.1 m/s)
Visibility: 5 miles ( 8 km)
Ceiling: at least 12,000 feet AGL
Clouds: scattered clouds at 4000 feet AGL
Weather: -SHRA  (light rain showers)

METAR text: ZSNB 170700Z 19004MPS 9999 FEW040 26/21 Q1011 NOSIG
Conditions at: ZSNB (NINGBO/LISHE , CN) observed 0700 UTC 17 June 2019
Temperature: 26.0°C (79°F)
Dewpoint: 21.0°C (70°F) [RH = 74%]
Pressure (altimeter): 29.85 inches Hg (1011.0 mb)
Winds: from the S (190 degrees) at 9 MPH (8 knots; 4.1 m/s)
Visibility: 6 or more miles (10+ km)
Ceiling: at least 12,000 feet AGL
Clouds: few clouds at 4000 feet AGL
Weather: no significant weather observed at this time

METAR text: ZSNB 170600Z 18004MPS 150V210 9999 FEW040 28/20 Q1011 NOSIG
Conditions at: ZSNB (NINGBO/LISHE , CN) observed 0600 UTC 17 June 2019
Temperature: 28.0°C (82°F)
Dewpoint: 20.0°C (68°F) [RH = 62%]
Pressure (altimeter): 29.85 inches Hg (1011.0 mb)
Winds: from the S (180 degrees) at 9 MPH (8 knots; 4.1 m/s)
Visibility: 6 or more miles (10+ km)
Ceiling: at least 12,000 feet AGL
Clouds: few clouds at 4000 feet AGL
Weather: no significant weather observed at this time

METAR text: ZSNB 170500Z 19005MPS 150V210 CAVOK 28/21 Q1011 NOSIG
Conditions at: ZSNB (NINGBO/LISHE , CN) observed 0500 UTC 17 June 2019
Temperature: 28.0°C (82°F)
Dewpoint: 21.0°C (70°F) [RH = 66%]
Pressure (altimeter): 29.85 inches Hg (1011.0 mb)
Winds: from the S (190 degrees) at 12 MPH (10 knots; 5.1 m/s)
Visibility: 6 or more miles (10+ km)
Ceiling: ceiling and visibility are OK
Clouds: unknown
Weather: no significant weather observed at this time

METAR text: ZSNB 170400Z 19004MPS 150V220 CAVOK 26/20 Q1011 NOSIG
Conditions at: ZSNB (NINGBO/LISHE , CN) observed 0400 UTC 17 June 2019
Temperature: 26.0°C (79°F)
Dewpoint: 20.0°C (68°F) [RH = 70%]
Pressure (altimeter): 29.85 inches Hg (1011.0 mb)
Winds: from the S (190 degrees) at 9 MPH (8 knots; 4.1 m/s)
Visibility: 6 or more miles (10+ km)
Ceiling: ceiling and visibility are OK
Clouds: unknown
Weather: no significant weather observed at this time

METAR text: ZSNB 170300Z 19003MPS 130V230 CAVOK 26/20 Q1012 NOSIG
Conditions at: ZSNB (NINGBO/LISHE , CN) observed 0300 UTC 17 June 2019
Temperature: 26.0°C (79°F)
Dewpoint: 20.0°C (68°F) [RH = 70%]
Pressure (altimeter): 29.88 inches Hg (1012.0 mb)
Winds: from the S (190 degrees) at 7 MPH (6 knots; 3.1 m/s)
Visibility: 6 or more miles (10+ km)
Ceiling: ceiling and visibility are OK
Clouds: unknown
Weather: no significant weather observed at this time

METAR text: ZSNB 170200Z 17003MPS 130V200 CAVOK 25/19 Q1012 NOSIG
Conditions at: ZSNB (NINGBO/LISHE , CN) observed 0200 UTC 17 June 2019
Temperature: 25.0°C (77°F)
Dewpoint: 19.0°C (66°F) [RH = 69%]
Pressure (altimeter): 29.88 inches Hg (1012.0 mb)
Winds: from the S (170 degrees) at 7 MPH (6 knots; 3.1 m/s)
Visibility: 6 or more miles (10+ km)
Ceiling: ceiling and visibility are OK
Clouds: unknown
Weather: no significant weather observed at this time

METAR text: ZSNB 170100Z 21003MPS 170V230 CAVOK 23/20 Q1013 NOSIG
Conditions at: ZSNB (NINGBO/LISHE , CN) observed 0100 UTC 17 June 2019
Temperature: 23.0°C (73°F)
Dewpoint: 20.0°C (68°F) [RH = 83%]
Pressure (altimeter): 29.91 inches Hg (1013.0 mb)
Winds: from the SSW (210 degrees) at 7 MPH (6 knots; 3.1 m/s)
Visibility: 6 or more miles (10+ km)
Ceiling: ceiling and visibility are OK
Clouds: unknown
Weather: no significant weather observed at this time

METAR text: ZSNB 170000Z 16002MPS 120V190 9999 -SHRA SCT040 23/19 Q1013 NOSIG
Conditions at: ZSNB (NINGBO/LISHE , CN) observed 0000 UTC 17 June 2019
Temperature: 23.0°C (73°F)
Dewpoint: 19.0°C (66°F) [RH = 78%]
Pressure (altimeter): 29.91 inches Hg (1013.0 mb)
Winds: from the SSE (160 degrees) at 5 MPH (4 knots; 2.1 m/s)
Visibility: 6 or more miles (10+ km)
Ceiling: at least 12,000 feet AGL
Clouds: scattered clouds at 4000 feet AGL
Weather: -SHRA  (light rain showers)

METAR text: ZSNB 162300Z 16002MPS 9999 -SHRA NSC 23/18 Q1012 NOSIG
Conditions at: ZSNB (NINGBO/LISHE , CN) observed 2300 UTC 16 June 2019
Temperature: 23.0°C (73°F)
Dewpoint: 18.0°C (64°F) [RH = 73%]
Pressure (altimeter): 29.88 inches Hg (1012.0 mb)
Winds: from the SSE (160 degrees) at 5 MPH (4 knots; 2.1 m/s)
Visibility: 6 or more miles (10+ km)
Ceiling: at least 12,000 feet AGL
Clouds: sky clear below 12,000 feet AGL
Weather: -SHRA  (light rain showers)

METAR text: ZSNB 162200Z 14001MPS CAVOK 23/17 Q1012 NOSIG
Conditions at: ZSNB (NINGBO/LISHE , CN) observed 2200 UTC 16 June 2019
Temperature: 23.0°C (73°F)
Dewpoint: 17.0°C (63°F) [RH = 69%]
Pressure (altimeter): 29.88 inches Hg (1012.0 mb)
Winds: from the SE (140 degrees) at 2 MPH (2 knots; 1.0 m/s)
Visibility: 6 or more miles (10+ km)
Ceiling: ceiling and visibility are OK
Clouds: unknown
Weather: no significant weather observed at this time

METAR text: ZSNB 162100Z 00000MPS CAVOK 23/17 Q1011 NOSIG
Conditions at: ZSNB (NINGBO/LISHE , CN) observed 2100 UTC 16 June 2019
Temperature: 23.0°C (73°F)
Dewpoint: 17.0°C (63°F) [RH = 69%]
Pressure (altimeter): 29.85 inches Hg (1011.0 mb)
Winds: calm
Visibility: 6 or more miles (10+ km)
Ceiling: ceiling and visibility are OK
Clouds: unknown
Weather: no significant weather observed at this time

METAR text: ZSNB 162000Z 13003MPS CAVOK 23/17 Q1010 NOSIG
Conditions at: ZSNB (NINGBO/LISHE , CN) observed 2000 UTC 16 June 2019
Temperature: 23.0°C (73°F)
Dewpoint: 17.0°C (63°F) [RH = 69%]
Pressure (altimeter): 29.82 inches Hg (1010.0 mb)
Winds: from the SE (130 degrees) at 7 MPH (6 knots; 3.1 m/s)
Visibility: 6 or more miles (10+ km)
Ceiling: ceiling and visibility are OK
Clouds: unknown
Weather: no significant weather observed at this time

METAR text: ZSNB 161900Z 14004MPS CAVOK 24/17 Q1010 NOSIG
Conditions at: ZSNB (NINGBO/LISHE , CN) observed 1900 UTC 16 June 2019
Temperature: 24.0°C (75°F)
Dewpoint: 17.0°C (63°F) [RH = 65%]
Pressure (altimeter): 29.82 inches Hg (1010.0 mb)
Winds: from the SE (140 degrees) at 9 MPH (8 knots; 4.1 m/s)
Visibility: 6 or more miles (10+ km)
Ceiling: ceiling and visibility are OK
Clouds: unknown
Weather: no significant weather observed at this time

METAR text: ZSNB 161800Z 16003MPS CAVOK 24/18 Q1010 NOSIG
Conditions at: ZSNB (NINGBO/LISHE , CN) observed 1800 UTC 16 June 2019
Temperature: 24.0°C (75°F)
Dewpoint: 18.0°C (64°F) [RH = 69%]
Pressure (altimeter): 29.82 inches Hg (1010.0 mb)
Winds: from the SSE (160 degrees) at 7 MPH (6 knots; 3.1 m/s)
Visibility: 6 or more miles (10+ km)
Ceiling: ceiling and visibility are OK
Clouds: unknown
Weather: no significant weather observed at this time

METAR text: ZSNB 161700Z 16002MPS CAVOK 25/18 Q1010 NOSIG
Conditions at: ZSNB (NINGBO/LISHE , CN) observed 1700 UTC 16 June 2019
Temperature: 25.0°C (77°F)
Dewpoint: 18.0°C (64°F) [RH = 65%]
Pressure (altimeter): 29.82 inches Hg (1010.0 mb)
Winds: from the SSE (160 degrees) at 5 MPH (4 knots; 2.1 m/s)
Visibility: 6 or more miles (10+ km)
Ceiling: ceiling and visibility are OK
Clouds: unknown
Weather: no significant weather observed at this time

METAR text: ZSNB 161600Z 17002MPS 140V200 CAVOK 25/18 Q1010 NOSIG
Conditions at: ZSNB (NINGBO/LISHE , CN) observed 1600 UTC 16 June 2019
Temperature: 25.0°C (77°F)
Dewpoint: 18.0°C (64°F) [RH = 65%]
Pressure (altimeter): 29.82 inches Hg (1010.0 mb)
Winds: from the S (170 degrees) at 5 MPH (4 knots; 2.1 m/s)
Visibility: 6 or more miles (10+ km)
Ceiling: ceiling and visibility are OK
Clouds: unknown
Weather: no significant weather observed at this time

METAR text: ZSNB 161500Z VRB01MPS CAVOK 25/19 Q1010 NOSIG
Conditions at: ZSNB (NINGBO/LISHE , CN) observed 1500 UTC 16 June 2019
Temperature: 25.0°C (77°F)
Dewpoint: 19.0°C (66°F) [RH = 69%]
Pressure (altimeter): 29.82 inches Hg (1010.0 mb)
Winds: variable direction winds at 2 MPH (2 knots; 1.0 m/s)
Visibility: 6 or more miles (10+ km)
Ceiling: ceiling and visibility are OK
Clouds: unknown
Weather: no significant weather observed at this time

METAR text: ZSNB 161400Z 19002MPS CAVOK 26/17 Q1010 NOSIG
Conditions at: ZSNB (NINGBO/LISHE , CN) observed 1400 UTC 16 June 2019
Temperature: 26.0°C (79°F)
Dewpoint: 17.0°C (63°F) [RH = 58%]
Pressure (altimeter): 29.82 inches Hg (1010.0 mb)
Winds: from the S (190 degrees) at 5 MPH (4 knots; 2.1 m/s)
Visibility: 6 or more miles (10+ km)
Ceiling: ceiling and visibility are OK
Clouds: unknown
Weather: no significant weather observed at this time

METAR text: ZSNB 161300Z 18002MPS 140V210 CAVOK 26/17 Q1010 NOSIG
Conditions at: ZSNB (NINGBO/LISHE , CN) observed 1300 UTC 16 June 2019
Temperature: 26.0°C (79°F)
Dewpoint: 17.0°C (63°F) [RH = 58%]
Pressure (altimeter): 29.82 inches Hg (1010.0 mb)
Winds: from the S (180 degrees) at 5 MPH (4 knots; 2.1 m/s)
Visibility: 6 or more miles (10+ km)
Ceiling: ceiling and visibility are OK
Clouds: unknown
Weather: no significant weather observed at this time

METAR text: ZSNB 161200Z 19002MPS 120V230 CAVOK 27/18 Q1010 NOSIG
Conditions at: ZSNB (NINGBO/LISHE , CN) observed 1200 UTC 16 June 2019
Temperature: 27.0°C (81°F)
Dewpoint: 18.0°C (64°F) [RH = 58%]
Pressure (altimeter): 29.82 inches Hg (1010.0 mb)
Winds: from the S (190 degrees) at 5 MPH (4 knots; 2.1 m/s)
Visibility: 6 or more miles (10+ km)
Ceiling: ceiling and visibility are OK
Clouds: unknown
Weather: no significant weather observed at this time

METAR text: ZSNB 161100Z 16004MPS CAVOK 28/17 Q1009 NOSIG
Conditions at: ZSNB (NINGBO/LISHE , CN) observed 1100 UTC 16 June 2019
Temperature: 28.0°C (82°F)
Dewpoint: 17.0°C (63°F) [RH = 51%]
Pressure (altimeter): 29.79 inches Hg (1009.0 mb)
Winds: from the SSE (160 degrees) at 9 MPH (8 knots; 4.1 m/s)
Visibility: 6 or more miles (10+ km)
Ceiling: ceiling and visibility are OK
Clouds: unknown
Weather: no significant weather observed at this time

METAR text: ZSNB 161000Z 15006MPS CAVOK 29/17 Q1008 NOSIG
Conditions at: ZSNB (NINGBO/LISHE , CN) observed 1000 UTC 16 June 2019
Temperature: 29.0°C (84°F)
Dewpoint: 17.0°C (63°F) [RH = 48%]
Pressure (altimeter): 29.76 inches Hg (1008.0 mb)
Winds: from the SSE (150 degrees) at 14 MPH (12 knots; 6.2 m/s)
Visibility: 6 or more miles (10+ km)
Ceiling: ceiling and visibility are OK
Clouds: unknown
Weather: no significant weather observed at this time

METAR text: ZSNB 160900Z 13006MPS CAVOK 29/18 Q1008 NOSIG
Conditions at: ZSNB (NINGBO/LISHE , CN) observed 0900 UTC 16 June 2019
Temperature: 29.0°C (84°F)
Dewpoint: 18.0°C (64°F) [RH = 52%]
Pressure (altimeter): 29.76 inches Hg (1008.0 mb)
Winds: from the SE (130 degrees) at 14 MPH (12 knots; 6.2 m/s)
Visibility: 6 or more miles (10+ km)
Ceiling: ceiling and visibility are OK
Clouds: unknown
Weather: no significant weather observed at this time

METAR text: ZSNB 160800Z 16005MPS CAVOK 31/18 Q1008 NOSIG
Conditions at: ZSNB (NINGBO/LISHE , CN) observed 0800 UTC 16 June 2019
Temperature: 31.0°C (88°F)
Dewpoint: 18.0°C (64°F) [RH = 46%]
Pressure (altimeter): 29.76 inches Hg (1008.0 mb)
Winds: from the SSE (160 degrees) at 12 MPH (10 knots; 5.1 m/s)
Visibility: 6 or more miles (10+ km)
Ceiling: ceiling and visibility are OK
Clouds: unknown
Weather: no significant weather observed at this time

METAR text: ZSNB 160700Z 17005MPS CAVOK 32/20 Q1008 NOSIG
Conditions at: ZSNB (NINGBO/LISHE , CN) observed 0700 UTC 16 June 2019
Temperature: 32.0°C (90°F)
Dewpoint: 20.0°C (68°F) [RH = 49%]
Pressure (altimeter): 29.76 inches Hg (1008.0 mb)
Winds: from the S (170 degrees) at 12 MPH (10 knots; 5.1 m/s)
Visibility: 6 or more miles (10+ km)
Ceiling: ceiling and visibility are OK
Clouds: unknown
Weather: no significant weather observed at this time

METAR text: ZSNB 160600Z 17004MPS 130V200 CAVOK 32/19 Q1008 NOSIG
Conditions at: ZSNB (NINGBO/LISHE , CN) observed 0600 UTC 16 June 2019
Temperature: 32.0°C (90°F)
Dewpoint: 19.0°C (66°F) [RH = 46%]
Pressure (altimeter): 29.76 inches Hg (1008.0 mb)
Winds: from the S (170 degrees) at 9 MPH (8 knots; 4.1 m/s)
Visibility: 6 or more miles (10+ km)
Ceiling: ceiling and visibility are OK
Clouds: unknown
Weather: no significant weather observed at this time

METAR text: ZSNB 160500Z 16005MPS 130V190 CAVOK 32/18 Q1009 NOSIG
Conditions at: ZSNB (NINGBO/LISHE , CN) observed 0500 UTC 16 June 2019
Temperature: 32.0°C (90°F)
Dewpoint: 18.0°C (64°F) [RH = 43%]
Pressure (altimeter): 29.79 inches Hg (1009.0 mb)
Winds: from the SSE (160 degrees) at 12 MPH (10 knots; 5.1 m/s)
Visibility: 6 or more miles (10+ km)
Ceiling: ceiling and visibility are OK
Clouds: unknown
Weather: no significant weather observed at this time

METAR text: ZSNB 160400Z 15004MPS 080V230 9000 NSC 31/21 Q1009 NOSIG
Conditions at: ZSNB (NINGBO/LISHE , CN) observed 0400 UTC 16 June 2019
Temperature: 31.0°C (88°F)
Dewpoint: 21.0°C (70°F) [RH = 55%]
Pressure (altimeter): 29.79 inches Hg (1009.0 mb)
Winds: from the SSE (150 degrees) at 9 MPH (8 knots; 4.1 m/s)
Visibility: 6 miles ( 9 km)
Ceiling: at least 12,000 feet AGL
Clouds: sky clear below 12,000 feet AGL
Weather: no significant weather observed at this time

METAR text: ZSNB 160300Z 19002MPS 140V230 8000 NSC 30/21 Q1009 NOSIG
Conditions at: ZSNB (NINGBO/LISHE , CN) observed 0300 UTC 16 June 2019
Temperature: 30.0°C (86°F)
Dewpoint: 21.0°C (70°F) [RH = 59%]
Pressure (altimeter): 29.79 inches Hg (1009.0 mb)
Winds: from the S (190 degrees) at 5 MPH (4 knots; 2.1 m/s)
Visibility: 5 miles ( 8 km)
Ceiling: at least 12,000 feet AGL
Clouds: sky clear below 12,000 feet AGL
Weather: no significant weather observed at this time

METAR text: ZSNB 160200Z VRB01MPS CAVOK 28/20 Q1009 NOSIG
Conditions at: ZSNB (NINGBO/LISHE , CN) observed 0200 UTC 16 June 2019
Temperature: 28.0°C (82°F)
Dewpoint: 20.0°C (68°F) [RH = 62%]
Pressure (altimeter): 29.79 inches Hg (1009.0 mb)
Winds: variable direction winds at 2 MPH (2 knots; 1.0 m/s)
Visibility: 6 or more miles (10+ km)
Ceiling: ceiling and visibility are OK
Clouds: unknown
Weather: no significant weather observed at this time

METAR text: ZSNB 160100Z 18003MPS 150V210 CAVOK 27/20 Q1008 NOSIG
Conditions at: ZSNB (NINGBO/LISHE , CN) observed 0100 UTC 16 June 2019
Temperature: 27.0°C (81°F)
Dewpoint: 20.0°C (68°F) [RH = 66%]
Pressure (altimeter): 29.76 inches Hg (1008.0 mb)
Winds: from the S (180 degrees) at 7 MPH (6 knots; 3.1 m/s)
Visibility: 6 or more miles (10+ km)
Ceiling: ceiling and visibility are OK
Clouds: unknown
Weather: no significant weather observed at this time

METAR text: ZSNB 160000Z 18002MPS 150V230 7000 NSC 25/20 Q1009 NOSIG
Conditions at: ZSNB (NINGBO/LISHE , CN) observed 0000 UTC 16 June 2019
Temperature: 25.0°C (77°F)
Dewpoint: 20.0°C (68°F) [RH = 74%]
Pressure (altimeter): 29.79 inches Hg (1009.0 mb)
Winds: from the S (180 degrees) at 5 MPH (4 knots; 2.1 m/s)
Visibility: 4 miles ( 7 km)
Ceiling: at least 12,000 feet AGL
Clouds: sky clear below 12,000 feet AGL
Weather: no significant weather observed at this time

METAR text: ZSNB 152300Z 21002MPS 6000 NSC 22/19 Q1008 NOSIG
Conditions at: ZSNB (NINGBO/LISHE , CN) observed 2300 UTC 15 June 2019
Temperature: 22.0°C (72°F)
Dewpoint: 19.0°C (66°F) [RH = 83%]
Pressure (altimeter): 29.76 inches Hg (1008.0 mb)
Winds: from the SSW (210 degrees) at 5 MPH (4 knots; 2.1 m/s)
Visibility: 4 miles ( 6 km)
Ceiling: at least 12,000 feet AGL
Clouds: sky clear below 12,000 feet AGL
Weather: no significant weather observed at this time

Forecast for: ZSNB (NINGBO/LISHE , CN)
Text: TAF ZSNB 170845Z 1712/1812 17004MPS 3500 -RA BR FEW007 BKN020 TX25/1806Z TN21/1721Z
Forecast period: 1200 UTC 17 June 2019 to 1200 UTC 18 June 2019
Forecast type: FROM: standard forecast or significant change
Winds: from the S (170 degrees) at 9 MPH (8 knots; 4.1 m/s)
Visibility: 2.17 miles (3.49 km)
Ceiling: 2000 feet AGL
Clouds: few clouds at 700 feet AGL
broken clouds at 2000 feet AGL
Weather: -RA BR  (light rain, mist)
Text: TEMPO 1800/1806 2000 SHRA BR FEW007 BKN020 FEW030CB
Forecast period: 0000 to 0600 UTC 18 June 2019
Forecast type: TEMPORARY: The following changes expected for less than half the time period
Visibility: 1.24 miles (2.00 km)
Ceiling: 2000 feet AGL
Clouds: few clouds at 700 feet AGL
broken clouds at 2000 feet AGL
few clouds at 3000 feet AGL
Weather: SHRA BR  (rain showers, mist)